Time;durP1;ratioP1;P1;durP2;ratioP2;P2;SDS_P1;SDS_P2;PMS_P1;PMS_P2;Temp;Humidity;BMP_temperature;BMP_pressure;BME280_temperature;BME280_humidity;BME280_pressure;Samples;Min_cycle;Max_cycle;Signal;HPM_P1;HPM_P2
2023/01/04 00:00:11;;;;;;;4.57;3.33;;;0.40;99.90;;;;;;5047363;28;20063;-73
2023/01/04 00:02:36;;;;;;;3.58;3.00;;;0.50;99.90;;;;;;5046656;28;20087;-72
2023/01/04 00:05:02;;;;;;;4.28;2.88;;;0.50;99.90;;;;;;5046984;28;20898;-73
2023/01/04 00:07:29;;;;;;;4.75;2.88;;;0.30;99.90;;;;;;5047298;28;20040;-74
2023/01/04 00:09:55;;;;;;;3.47;2.17;;;;;;;;;;5048709;28;20378;-75
2023/01/04 00:12:21;;;;;;;2.90;2.15;;;-0.10;99.90;;;;;;5047352;28;20029;-73
2023/01/04 00:14:47;;;;;;;4.50;2.88;;;;;;;;;;5048218;28;20055;-74
2023/01/04 00:17:13;;;;;;;5.22;2.83;;;;;;;;;;5048490;28;20032;-73
2023/01/04 00:19:39;;;;;;;4.45;3.13;;;0.00;99.90;;;;;;5047009;28;20025;-74
2023/01/04 00:22:04;;;;;;;4.90;3.38;;;-0.10;99.90;;;;;;5048770;28;20251;-75
2023/01/04 00:24:30;;;;;;;5.00;2.95;;;-0.30;99.90;;;;;;5048714;28;20422;-74
2023/01/04 00:26:56;;;;;;;4.93;2.50;;;;;;;;;;5050251;28;20363;-74
2023/01/04 00:29:22;;;;;;;5.47;2.95;;;-0.30;99.90;;;;;;5050172;28;20076;-73
2023/01/04 00:31:48;;;;;;;5.10;3.15;;;-0.30;99.90;;;;;;5048649;28;20116;-74
2023/01/04 00:34:15;;;;;;;6.00;3.70;;;-0.40;99.90;;;;;;5050106;28;20052;-74
2023/01/04 00:36:41;;;;;;;4.68;2.30;;;-0.40;99.90;;;;;;5050133;28;20033;-74
2023/01/04 00:39:09;;;;;;;3.80;2.70;;;-0.40;99.90;;;;;;5049866;28;20029;-75
2023/01/04 00:41:40;;;;;;;4.13;2.75;;;-0.40;99.90;;;;;;5050031;28;20025;-73
2023/01/04 00:44:07;;;;;;;6.32;3.55;;;-0.40;99.90;;;;;;5050160;28;20013;-74
2023/01/04 00:46:33;;;;;;;7.05;4.18;;;-0.30;99.90;;;;;;5049659;28;20082;-73
2023/01/04 00:49:00;;;;;;;12.80;5.07;;;;;;;;;;5050158;28;20466;-74
2023/01/04 00:51:26;;;;;;;6.93;4.05;;;-0.50;99.90;;;;;;5050070;28;20427;-73
2023/01/04 00:53:52;;;;;;;6.32;2.97;;;0.10;99.90;;;;;;5049862;28;20128;-74
2023/01/04 00:56:17;;;;;;;5.15;3.55;;;0.60;99.90;;;;;;5049942;28;20469;-73
2023/01/04 00:58:43;;;;;;;4.45;3.53;;;0.00;99.90;;;;;;5049896;28;20033;-74
2023/01/04 01:01:09;;;;;;;5.00;3.08;;;0.30;99.90;;;;;;5049577;28;20481;-74
2023/01/04 01:03:35;;;;;;;12.35;5.00;;;;;;;;;;5049751;28;20040;-74
2023/01/04 01:06:05;;;;;;;7.72;4.75;;;0.30;99.90;;;;;;5049800;28;20037;-75
2023/01/04 01:08:34;;;;;;;10.23;4.40;;;0.30;99.90;;;;;;5049947;28;20074;-74
2023/01/04 01:11:04;;;;;;;4.63;3.33;;;0.10;99.90;;;;;;5049831;28;20021;-74
2023/01/04 01:13:30;;;;;;;8.82;4.10;;;0.10;99.90;;;;;;5050105;28;20381;-75
2023/01/04 01:16:02;;;;;;;6.32;3.40;;;0.10;99.90;;;;;;5053460;28;20029;-74
2023/01/04 01:18:28;;;;;;;4.80;3.53;;;0.20;99.90;;;;;;5053600;28;20036;-74
2023/01/04 01:20:54;;;;;;;5.47;3.70;;;0.10;99.90;;;;;;5053663;28;20398;-74
2023/01/04 01:23:20;;;;;;;4.47;3.00;;;;;;;;;;5053497;28;20017;-75
2023/01/04 01:25:45;;;;;;;8.32;4.35;;;0.10;99.90;;;;;;5053392;28;20087;-74
2023/01/04 01:28:11;;;;;;;12.07;4.25;;;0.30;99.90;;;;;;5052122;28;20437;-75
2023/01/04 01:30:41;;;;;;;3.35;2.80;;;-0.10;99.90;;;;;;5053469;28;20064;-74
2023/01/04 01:33:08;;;;;;;7.90;3.92;;;-0.10;99.90;;;;;;5053453;28;20041;-74
2023/01/04 01:35:34;;;;;;;6.57;5.10;;;0.20;99.90;;;;;;5053629;28;20580;-75
2023/01/04 01:38:00;;;;;;;5.82;3.30;;;0.00;99.90;;;;;;5053313;28;20059;-74
2023/01/04 01:40:26;;;;;;;5.28;3.85;;;-0.20;99.90;;;;;;5052026;28;20057;-74
2023/01/04 01:42:52;;;;;;;7.68;3.55;;;;;;;;;;5053046;28;20053;-74
2023/01/04 01:45:32;;;;;;;8.60;5.03;;;-0.10;99.90;;;;;;5052869;28;20058;-74
2023/01/04 01:48:10;;;;;;;4.20;2.88;;;-0.10;99.90;;;;;;5052849;28;20029;-74
2023/01/04 01:50:40;;;;;;;4.82;3.13;;;-0.20;99.90;;;;;;5052898;28;20078;-73
2023/01/04 01:53:08;;;;;;;5.88;4.28;;;-0.40;99.90;;;;;;5053268;28;20455;-76
2023/01/04 01:55:35;;;;;;;7.28;3.67;;;-0.40;99.90;;;;;;5052676;28;20551;-75
2023/01/04 01:58:03;;;;;;;9.73;3.05;;;-0.40;99.90;;;;;;5052884;28;20116;-76
2023/01/04 02:00:29;;;;;;;10.38;3.50;;;;;;;;;;5053025;28;20017;-75
2023/01/04 02:03:11;;;;;;;11.45;3.53;;;;;;;;;;5052854;28;20060;-75
2023/01/04 02:05:37;;;;;;;7.18;4.32;;;;;;;;;;5052794;28;20040;-73
2023/01/04 02:08:04;;;;;;;12.40;3.88;;;-0.60;99.90;;;;;;5052822;28;20018;-75
2023/01/04 02:10:30;;;;;;;12.55;4.22;;;-0.60;99.90;;;;;;5051393;28;20453;-74
2023/01/04 02:13:06;;;;;;;7.05;4.40;;;-0.50;99.90;;;;;;5052869;28;20021;-75
2023/01/04 02:16:00;;;;;;;6.72;4.03;;;-0.50;99.90;;;;;;5052623;28;20033;-75
2023/01/04 02:18:30;;;;;;;5.72;3.55;;;;;;;;;;5011863;28;20029;-73
2023/01/04 02:20:56;;;;;;;5.55;3.50;;;;;;;;;;5052616;28;20033;-75
2023/01/04 02:23:33;;;;;;;4.78;3.08;;;-0.60;99.90;;;;;;5052327;28;20017;-73
2023/01/04 02:26:18;;;;;;;4.45;2.40;;;;;;;;;;5051160;28;20040;-73
2023/01/04 02:29:29;;;;;;;6.90;3.08;;;-0.60;99.90;;;;;;5052168;28;20079;-76
2023/01/04 02:32:05;;;;;;;4.90;3.03;;;-0.60;99.90;;;;;;5020842;28;20033;-76
2023/01/04 02:34:57;;;;;;;5.78;3.47;;;-0.30;99.90;;;;;;5052242;28;20045;-74
2023/01/04 02:37:46;;;;;;;7.70;3.53;;;-0.60;99.90;;;;;;5052307;28;20052;-73
2023/01/04 02:40:27;;;;;;;6.85;3.33;;;-0.60;99.90;;;;;;5050965;28;20017;-75
2023/01/04 02:46:02;;;;;;;5.10;3.30;;;-0.70;99.90;;;;;;5051908;28;20553;-76
2023/01/04 02:51:26;;;;;;;8.57;3.50;;;-0.90;99.90;;;;;;5052215;28;20523;-77
2023/01/04 02:53:52;;;;;;;7.40;3.13;;;-0.70;99.90;;;;;;5051835;28;20048;-74
2023/01/04 02:56:51;;;;;;;6.10;3.80;;;-0.90;99.90;;;;;;5050620;28;20056;-73
2023/01/04 02:59:19;;;;;;;4.65;2.97;;;-0.90;99.90;;;;;;5050378;28;20551;-76
2023/01/04 03:08:30;;;;;;;4.93;3.10;;;-0.90;99.90;;;;;;5017969;28;20025;-76
2023/01/04 03:14:02;;;;;;;7.55;3.25;;;-0.60;99.90;;;;;;5051604;28;20055;-77
2023/01/04 03:16:30;;;;;;;5.10;2.78;;;-0.60;99.90;;;;;;5051296;28;20120;-73
2023/01/04 03:19:03;;;;;;;4.57;2.95;;;-0.60;99.90;;;;;;5051234;28;20025;-75
2023/01/04 03:21:30;;;;;;;4.07;2.90;;;0.00;99.90;;;;;;5050070;28;20431;-73
2023/01/04 03:35:21;;;;;;;4.30;2.60;;;-0.50;99.90;;;;;;5051236;28;20397;-77
2023/01/04 03:36:43;;;;;;;5.18;2.30;;;-0.60;99.90;;;;;;5050952;28;20039;-74
2023/01/04 03:48:36;;;;;;;5.60;3.53;;;-0.30;99.90;;;;;;5051283;28;20182;-75
2023/01/04 03:51:07;;;;;;;5.68;3.13;;;-2.20;99.90;;;;;;5049415;28;20056;-74
2023/01/04 03:53:40;;;;;;;5.68;3.65;;;-0.20;99.90;;;;;;5050918;28;20547;-75
2023/01/04 03:56:09;;;;;;;3.95;3.22;;;-0.20;99.90;;;;;;5050425;28;20167;-72
2023/01/04 03:58:36;;;;;;;3.88;2.40;;;0.10;99.90;;;;;;5050624;28;20386;-75
2023/01/04 04:01:04;;;;;;;5.43;2.35;;;-0.20;99.90;;;;;;5050317;28;20040;-73
2023/01/04 04:09:03;;;;;;;4.43;3.22;;;-0.10;99.90;;;;;;5050954;28;20056;-73
2023/01/04 04:11:29;;;;;;;6.07;4.63;;;;;;;;;;5050474;28;20112;-75
2023/01/04 04:13:55;;;;;;;3.85;2.60;;;0.20;99.90;;;;;;5049161;28;20496;-76
2023/01/04 04:16:20;;;;;;;3.25;2.20;;;0.00;99.90;;;;;;5049779;28;20037;-76
2023/01/04 04:18:47;;;;;;;2.75;2.17;;;-0.10;99.90;;;;;;5050322;28;20074;-76
2023/01/04 04:21:13;;;;;;;3.55;2.92;;;0.10;99.90;;;;;;5050483;28;20021;-74
2023/01/04 04:23:39;;;;;;;3.28;2.63;;;1.40;99.90;;;;;;5050282;28;20044;-76
2023/01/04 04:26:04;;;;;;;4.07;2.20;;;0.20;99.90;;;;;;5050142;28;20477;-75
2023/01/04 04:28:30;;;;;;;5.75;2.70;;;0.10;99.90;;;;;;5070366;28;20025;-73
2023/01/04 04:30:56;;;;;;;3.25;2.95;;;0.10;99.90;;;;;;5070087;28;20060;-73
2023/01/04 04:33:21;;;;;;;4.70;2.97;;;0.10;99.90;;;;;;5070134;28;20460;-75
2023/01/04 04:35:51;;;;;;;3.72;2.67;;;1.90;99.90;;;;;;5070202;28;20417;-75
2023/01/04 04:38:17;;;;;;;2.22;1.58;;;-0.20;99.90;;;;;;5070352;28;20098;-73
2023/01/04 04:43:28;;;;;;;4.28;2.00;;;0.20;99.90;;;;;;5070370;28;20487;-74
2023/01/04 04:45:53;;;;;;;1.88;1.58;;;1.90;99.90;;;;;;5070031;28;20021;-74
2023/01/04 04:48:19;;;;;;;2.30;2.10;;;0.30;99.90;;;;;;5068176;28;20381;-74
2023/01/04 04:50:45;;;;;;;3.28;2.13;;;0.30;99.90;;;;;;5070281;28;20602;-75
2023/01/04 04:53:10;;;;;;;4.15;2.25;;;0.30;99.90;;;;;;5069866;28;20020;-76
2023/01/04 04:55:36;;;;;;;2.67;1.95;;;0.30;99.90;;;;;;5069810;28;20036;-75
2023/01/04 04:58:02;;;;;;;7.95;1.88;;;0.20;99.90;;;;;;5068718;28;20050;-77
2023/01/04 05:00:27;;;;;;;2.67;1.67;;;0.10;99.90;;;;;;5069835;28;20050;-74
2023/01/04 05:02:53;;;;;;;1.75;1.52;;;0.70;99.90;;;;;;5070303;28;20473;-74
2023/01/04 05:05:18;;;;;;;1.67;1.40;;;0.30;99.90;;;;;;5068525;28;20098;-74
2023/01/04 05:07:44;;;;;;;2.90;2.15;;;0.40;99.90;;;;;;5070087;28;20032;-74
2023/01/04 05:10:10;;;;;;;3.80;2.08;;;;;;;;;;5068694;28;20029;-75
2023/01/04 05:15:20;;;;;;;3.10;1.95;;;0.50;99.90;;;;;;5069654;28;20097;-76
2023/01/04 05:17:46;;;;;;;3.50;2.33;;;0.70;99.90;;;;;;5069836;28;20127;-75
2023/01/04 05:20:12;;;;;;;2.17;1.92;;;;;;;;;;5069744;28;20036;-76
2023/01/04 05:22:37;;;;;;;1.95;1.42;;;0.80;99.90;;;;;;5068443;28;20052;-76
2023/01/04 05:25:03;;;;;;;3.25;1.92;;;0.90;99.90;;;;;;5069450;28;20489;-74
2023/01/04 05:27:29;;;;;;;2.70;2.00;;;0.90;99.90;;;;;;5070047;28;20152;-75
2023/01/04 05:32:39;;;;;;;2.20;1.75;;;0.80;99.90;;;;;;5069886;28;20082;-76
2023/01/04 05:35:05;;;;;;;2.20;1.60;;;1.00;99.90;;;;;;5070207;28;20473;-76
2023/01/04 05:37:30;;;;;;;2.05;1.85;;;0.80;99.90;;;;;;5070502;28;20024;-77
2023/01/04 05:39:56;;;;;;;3.83;1.83;;;0.90;99.90;;;;;;5070055;28;20488;-76
2023/01/04 05:42:24;;;;;;;2.00;1.80;;;0.90;99.90;;;;;;5069491;28;20074;-76
2023/01/04 05:44:54;;;;;;;3.67;1.98;;;0.90;99.90;;;;;;5067808;28;20039;-75
2023/01/04 05:47:20;;;;;;;2.65;1.45;;;1.10;99.90;;;;;;5069990;28;20479;-73
2023/01/04 05:49:46;;;;;;;1.88;1.20;;;1.30;99.90;;;;;;5068535;28;20397;-75
2023/01/04 05:52:12;;;;;;;2.15;1.95;;;1.00;99.90;;;;;;5066262;28;20027;-74
2023/01/04 05:54:38;;;;;;;2.05;1.23;;;2.40;99.90;;;;;;5067310;28;20033;-74
2023/01/04 05:57:03;;;;;;;1.27;1.17;;;1.20;99.90;;;;;;5067552;28;20415;-74
2023/01/04 05:59:29;;;;;;;1.80;1.58;;;1.20;99.90;;;;;;5067392;28;20027;-74
2023/01/04 06:01:54;;;;;;;1.67;1.50;;;1.40;99.90;;;;;;5071096;28;20024;-74
2023/01/04 06:04:20;;;;;;;2.70;1.83;;;1.20;99.90;;;;;;5070948;28;20017;-75
2023/01/04 06:06:46;;;;;;;1.92;1.77;;;1.30;99.90;;;;;;5072214;28;20577;-75
2023/01/04 06:09:12;;;;;;;3.40;3.05;;;1.30;99.90;;;;;;5071559;28;20567;-73
2023/01/04 06:11:38;;;;;;;3.70;2.35;;;1.40;99.90;;;;;;5071389;28;20056;-73
2023/01/04 06:14:03;;;;;;;2.78;2.28;;;1.40;99.90;;;;;;5071394;28;20527;-73
2023/01/04 06:16:29;;;;;;;2.95;2.63;;;1.20;99.90;;;;;;5072558;28;20039;-73
2023/01/04 06:18:55;;;;;;;5.28;2.88;;;1.30;99.90;;;;;;5072543;28;20575;-74
2023/01/04 06:21:20;;;;;;;2.17;1.70;;;1.30;99.90;;;;;;5072309;28;20040;-73
2023/01/04 06:23:46;;;;;;;2.65;2.10;;;1.20;99.90;;;;;;5072224;28;20072;-73
2023/01/04 06:26:12;;;;;;;5.88;2.97;;;;;;;;;;5071111;28;20052;-73
2023/01/04 06:28:38;;;;;;;1.83;1.73;;;1.90;99.90;;;;;;5071056;28;20036;-73
2023/01/04 06:31:08;;;;;;;4.22;2.90;;;1.30;99.90;;;;;;5072246;28;20025;-75
2023/01/04 06:33:33;;;;;;;4.93;2.55;;;1.30;99.90;;;;;;5071599;28;20013;-73
2023/01/04 06:35:59;;;;;;;3.13;2.00;;;1.50;99.90;;;;;;5074997;28;20089;-73
2023/01/04 06:38:25;;;;;;;3.20;1.80;;;1.50;99.90;;;;;;5073591;28;20629;-73
2023/01/04 06:40:51;;;;;;;2.50;2.00;;;2.90;99.90;;;;;;5081736;28;20182;-73
2023/01/04 06:43:17;;;;;;;2.10;1.90;;;;;;;;;;5083019;28;20113;-73
2023/01/04 06:45:43;;;;;;;2.40;2.03;;;1.60;99.90;;;;;;5074988;28;20449;-73
2023/01/04 06:48:09;;;;;;;3.75;2.92;;;1.50;99.90;;;;;;5072141;28;20025;-73
2023/01/04 06:50:34;;;;;;;4.63;3.67;;;1.90;99.90;;;;;;5072425;28;20032;-73
2023/01/04 06:53:00;;;;;;;9.73;5.20;;;1.70;99.90;;;;;;5072159;28;20046;-73
2023/01/04 06:55:26;;;;;;;8.95;5.60;;;1.60;99.90;;;;;;5063831;28;20087;-73
2023/01/04 06:57:51;;;;;;;8.13;5.40;;;1.70;99.90;;;;;;5081861;28;20029;-72
2023/01/04 07:00:17;;;;;;;13.48;7.32;;;1.80;99.90;;;;;;5054799;28;20037;-74
2023/01/04 07:02:43;;;;;;;13.25;8.57;;;1.80;99.90;;;;;;5066481;28;20059;-73
2023/01/04 07:05:09;;;;;;;13.00;8.70;;;1.70;99.90;;;;;;5069365;28;20052;-73
2023/01/04 07:07:34;;;;;;;12.43;6.35;;;2.00;99.90;;;;;;5068400;28;20035;-73
2023/01/04 07:10:01;;;;;;;15.48;8.35;;;;;;;;;;5070921;28;20405;-72
2023/01/04 07:12:27;;;;;;;11.90;7.43;;;;;;;;;;5070065;28;20033;-74
2023/01/04 07:14:53;;;;;;;12.85;7.82;;;;;;;;;;5068046;28;20035;-74
2023/01/04 07:17:19;;;;;;;9.98;6.25;;;;;;;;;;5066977;28;20025;-74
2023/01/04 07:19:45;;;;;;;8.27;6.07;;;;;;;;;;5068110;28;20511;-74
2023/01/04 07:22:10;;;;;;;6.75;3.92;;;2.20;99.90;;;;;;5067537;28;20052;-74
2023/01/04 07:24:36;;;;;;;10.43;4.65;;;1.90;99.90;;;;;;5065960;28;20080;-74
2023/01/04 07:27:02;;;;;;;7.22;4.68;;;;;;;;;;5069035;28;20043;-74
2023/01/04 07:29:28;;;;;;;4.38;3.90;;;;;;;;;;5068744;28;20024;-74
2023/01/04 07:31:55;;;;;;;8.60;3.15;;;2.60;99.90;;;;;;5068440;28;20031;-74
2023/01/04 07:34:23;;;;;;;4.30;3.58;;;2.60;99.90;;;;;;5067956;28;20063;-75
2023/01/04 07:36:49;;;;;;;6.28;3.20;;;;;;;;;;5067939;28;20048;-74
2023/01/04 07:39:16;;;;;;;4.05;3.03;;;2.70;99.90;;;;;;5069234;28;20024;-75
2023/01/04 07:41:42;;;;;;;6.45;4.25;;;;;;;;;;5069187;28;20109;-75
2023/01/04 07:44:10;;;;;;;8.15;4.65;;;2.80;99.90;;;;;;5067573;28;20023;-73
2023/01/04 07:46:37;;;;;;;11.68;4.95;;;2.70;99.90;;;;;;5068435;28;20517;-73
2023/01/04 07:49:04;;;;;;;6.10;4.03;;;;;;;;;;5061996;28;20076;-74
2023/01/04 07:51:31;;;;;;;5.90;3.78;;;2.70;99.90;;;;;;5048968;28;20178;-74
2023/01/04 07:53:57;;;;;;;5.35;4.28;;;2.70;99.90;;;;;;5048665;28;20033;-73
2023/01/04 07:56:22;;;;;;;8.05;5.35;;;2.70;99.90;;;;;;5049345;28;20033;-74
2023/01/04 07:58:48;;;;;;;11.73;7.20;;;2.80;99.90;;;;;;5048701;28;20401;-74
2023/01/04 08:01:17;;;;;;;5.38;4.20;;;3.00;99.90;;;;;;5048673;28;20028;-74
2023/01/04 08:03:46;;;;;;;16.27;10.10;;;2.90;99.90;;;;;;5046944;28;20136;-74
2023/01/04 08:06:14;;;;;;;9.40;6.57;;;;;;;;;;5048409;28;20021;-75
2023/01/04 08:08:41;;;;;;;8.20;5.57;;;;;;;;;;5050552;28;20028;-74
2023/01/04 08:11:13;;;;;;;9.77;5.57;;;3.00;99.90;;;;;;5050003;28;20440;-73
2023/01/04 08:13:39;;;;;;;10.77;6.38;;;;;;;;;;5051169;28;20433;-74
2023/01/04 08:16:06;;;;;;;18.08;8.00;;;3.10;99.90;;;;;;5048558;28;20116;-74
2023/01/04 08:18:32;;;;;;;9.75;6.68;;;;;;;;;;5046239;28;20025;-72
2023/01/04 08:21:05;;;;;;;9.68;7.28;;;;;;;;;;5046807;28;20075;-73
2023/01/04 08:23:31;;;;;;;22.30;12.98;;;;;;;;;;5044338;28;20854;-74
2023/01/04 08:26:02;;;;;;;18.73;10.10;;;;;;;;;;5046918;28;20040;-73
2023/01/04 08:28:27;;;;;;;20.63;13.88;;;3.50;99.90;;;;;;5046369;28;20039;-73
2023/01/04 08:30:53;;;;;;;28.15;14.70;;;3.30;99.90;;;;;;5045899;28;20024;-73
2023/01/04 08:33:18;;;;;;;17.77;10.07;;;3.70;99.90;;;;;;5045612;28;20326;-75
2023/01/04 08:35:44;;;;;;;18.08;10.30;;;;;;;;;;5046086;28;20086;-75
2023/01/04 08:38:10;;;;;;;18.02;10.73;;;;;;;;;;5047298;28;20095;-74
2023/01/04 08:40:36;;;;;;;16.67;9.80;;;3.80;99.90;;;;;;5048269;28;20025;-74
2023/01/04 08:43:01;;;;;;;21.33;11.80;;;3.70;99.90;;;;;;5047766;28;20033;-74
2023/01/04 08:45:28;;;;;;;19.15;11.75;;;3.70;99.90;;;;;;5048739;28;20036;-73
2023/01/04 08:47:54;;;;;;;14.32;8.93;;;;;;;;;;5047878;28;20030;-73
2023/01/04 08:50:20;;;;;;;13.27;8.45;;;3.90;99.90;;;;;;5047652;28;20043;-75
2023/01/04 08:52:46;;;;;;;8.27;4.78;;;;;;;;;;5045512;28;20478;-74
2023/01/04 08:55:14;;;;;;;5.40;3.20;;;;;;;;;;5061935;28;20035;-73
2023/01/04 08:57:40;;;;;;;10.65;6.97;;;4.00;99.90;;;;;;5068106;28;20032;-74
2023/01/04 09:00:07;;;;;;;12.75;6.75;;;3.90;99.90;;;;;;5069117;28;20054;-75
2023/01/04 09:02:33;;;;;;;13.50;8.63;;;3.90;99.90;;;;;;5068658;28;20056;-75
2023/01/04 09:05:01;;;;;;;11.95;8.35;;;4.00;99.90;;;;;;5068014;28;20346;-75
2023/01/04 09:07:30;;;;;;;19.85;9.43;;;;;;;;;;5078994;28;20043;-74
2023/01/04 09:09:56;;;;;;;16.20;9.70;;;;;;;;;;5073057;28;20024;-75
2023/01/04 09:12:23;;;;;;;13.20;7.70;;;4.40;99.90;;;;;;5075468;28;20032;-74
2023/01/04 09:14:49;;;;;;;10.57;7.68;;;;;;;;;;5070827;28;20050;-74
2023/01/04 09:17:15;;;;;;;13.55;7.95;;;4.30;99.90;;;;;;5070928;28;20024;-75
2023/01/04 09:19:41;;;;;;;12.52;7.70;;;;;;;;;;5070184;28;20027;-73
2023/01/04 09:22:06;;;;;;;10.63;6.30;;;4.30;99.90;;;;;;5068901;28;20032;-75
2023/01/04 09:24:33;;;;;;;13.73;7.43;;;;;;;;;;5067686;28;20054;-75
2023/01/04 09:26:58;;;;;;;11.05;6.40;;;4.40;99.90;;;;;;5067604;28;20016;-74
2023/01/04 09:29:26;;;;;;;17.15;7.60;;;4.30;99.90;;;;;;5067547;28;20094;-74
2023/01/04 09:31:52;;;;;;;14.27;7.05;;;4.60;99.90;;;;;;5067184;28;20024;-73
2023/01/04 09:34:18;;;;;;;12.75;7.10;;;4.60;99.90;;;;;;5070032;28;20028;-74
2023/01/04 09:36:45;;;;;;;16.75;8.45;;;;;;;;;;5073136;28;20029;-74
2023/01/04 09:39:11;;;;;;;14.07;7.60;;;4.60;99.90;;;;;;5070623;28;20029;-72
2023/01/04 09:41:58;;;;;;;10.55;6.03;;;4.60;99.90;;;;;;5071549;28;20043;-75
2023/01/04 09:44:31;;;;;;;14.32;6.97;;;;;;;;;;5072770;28;20021;-75
2023/01/04 09:47:12;;;;;;;14.00;7.78;;;5.00;99.90;;;;;;5070588;28;20017;-73
2023/01/04 09:49:44;;;;;;;11.80;7.15;;;5.00;99.90;;;;;;5063506;28;20335;-76
2023/01/04 09:52:10;;;;;;;8.88;5.20;;;;;;;;;;5060345;28;20039;-74
2023/01/04 09:54:52;;;;;;;8.60;4.93;;;5.00;99.90;;;;;;5060786;28;20108;-75
2023/01/04 09:57:34;;;;;;;9.02;5.15;;;5.10;99.90;;;;;;5059911;28;20236;-74
2023/01/04 10:00:27;;;;;;;5.30;3.63;;;5.50;99.90;;;;;;5057952;28;20090;-75
2023/01/04 10:03:02;;;;;;;6.80;4.63;;;5.60;99.90;;;;;;5059935;28;20052;-75
2023/01/04 10:05:31;;;;;;;7.40;4.22;;;5.70;99.90;;;;;;5058539;28;20040;-74
2023/01/04 10:07:57;;;;;;;4.55;3.47;;;;;;;;;;5058951;28;20039;-75
2023/01/04 10:10:42;;;;;;;6.65;3.13;;;;;;;;;;5060849;28;20114;-76
2023/01/04 10:13:44;;;;;;;7.63;5.72;;;5.80;99.90;;;;;;5062203;28;20343;-76
2023/01/04 10:16:10;;;;;;;16.05;7.32;;;;;;;;;;5060217;28;20051;-75
2023/01/04 10:18:59;;;;;;;11.32;6.68;;;5.80;99.90;;;;;;5060104;28;20028;-76
2023/01/04 10:21:30;;;;;;;9.93;5.78;;;;;;;;;;5058837;28;20036;-77
2023/01/04 10:24:02;;;;;;;10.30;6.80;;;5.80;99.90;;;;;;5059403;28;20084;-76
2023/01/04 10:26:38;;;;;;;9.85;6.43;;;5.90;99.90;;;;;;5058204;28;20302;-76
2023/01/04 10:29:07;;;;;;;6.85;4.45;;;6.00;99.90;;;;;;5057715;28;20104;-74
2023/01/04 10:32:04;;;;;;;6.60;3.73;;;6.10;99.90;;;;;;5060332;28;20329;-75
2023/01/04 10:34:36;;;;;;;6.78;3.30;;;6.40;99.90;;;;;;5059651;28;20024;-76
2023/01/04 10:37:24;;;;;;;5.35;3.45;;;5.90;99.90;;;;;;5058088;28;20037;-74
2023/01/04 10:39:51;;;;;;;5.88;3.33;;;6.00;99.90;;;;;;5059654;28;20029;-74
2023/01/04 10:42:21;;;;;;;5.75;3.17;;;6.10;99.90;;;;;;5059778;28;20021;-73
2023/01/04 10:44:58;;;;;;;6.75;3.78;;;6.10;99.90;;;;;;5059075;28;20070;-74
2023/01/04 10:47:53;;;;;;;5.50;3.33;;;6.10;99.90;;;;;;5062316;28;20040;-75
2023/01/04 10:50:42;;;;;;;6.03;4.15;;;6.30;99.90;;;;;;5088535;28;20107;-75
2023/01/04 10:53:15;;;;;;;5.90;2.85;;;;;;;;;;5070169;28;20058;-74
2023/01/04 10:56:23;;;;;;;6.90;3.50;;;6.30;99.90;;;;;;5068202;28;20042;-73
2023/01/04 10:59:06;;;;;;;6.85;2.50;;;6.40;99.90;;;;;;5017507;28;20032;-75
2023/01/04 11:01:45;;;;;;;5.68;2.83;;;6.50;99.90;;;;;;5068035;28;20017;-74
2023/01/04 11:04:38;;;;;;;4.68;2.10;;;6.50;99.90;;;;;;5069805;28;20481;-74
2023/01/04 11:07:12;;;;;;;5.40;2.58;;;6.80;99.90;;;;;;5049663;28;20021;-74
2023/01/04 11:09:54;;;;;;;2.70;2.22;;;6.80;99.90;;;;;;5049327;28;20025;-74
2023/01/04 11:12:22;;;;;;;3.05;2.15;;;6.80;99.90;;;;;;5051718;28;20032;-75
2023/01/04 11:14:50;;;;;;;4.15;2.53;;;7.10;99.90;;;;;;5068681;28;20043;-76
2023/01/04 11:17:16;;;;;;;3.97;2.97;;;7.20;99.90;;;;;;5072720;28;20012;-75
2023/01/04 11:19:42;;;;;;;6.68;3.38;;;7.20;99.90;;;;;;5069552;28;20035;-74
2023/01/04 11:22:19;;;;;;;3.10;2.15;;;7.30;99.90;;;;;;5067604;28;20092;-75
2023/01/04 11:24:49;;;;;;;2.90;2.60;;;7.50;99.90;;;;;;5070214;28;20040;-74
2023/01/04 11:27:20;;;;;;;8.45;3.53;;;7.10;99.90;;;;;;5067128;28;20025;-76
2023/01/04 11:29:56;;;;;;;4.57;3.40;;;7.00;99.90;;;;;;5068324;28;20020;-73
2023/01/04 11:32:40;;;;;;;6.05;2.70;;;;;;;;;;5069889;28;20058;-74
2023/01/04 11:35:07;;;;;;;6.07;3.25;;;7.30;99.90;;;;;;5068051;28;20047;-74
2023/01/04 11:37:34;;;;;;;4.15;2.90;;;7.20;99.90;;;;;;5063771;28;20186;-75
2023/01/04 11:40:22;;;;;;;3.58;2.78;;;7.10;99.90;;;;;;5057422;28;20024;-76
2023/01/04 11:43:15;;;;;;;11.50;6.10;;;7.20;99.90;;;;;;5053422;28;20060;-77
2023/01/04 11:45:53;;;;;;;9.15;4.22;;;7.30;99.90;;;;;;5050894;28;20037;-75
2023/01/04 11:48:19;;;;;;;6.47;2.78;;;;;;;;;;5057559;28;20041;-75
2023/01/04 11:50:47;;;;;;;6.32;2.97;;;7.30;99.90;;;;;;5053928;28;20488;-74
2023/01/04 11:53:26;;;;;;;3.25;3.00;;;7.10;99.90;;;;;;5052011;28;20481;-75
2023/01/04 11:56:07;;;;;;;3.95;3.13;;;;;;;;;;5061901;28;20040;-75
2023/01/04 11:58:33;;;;;;;3.00;2.70;;;;;;;;;;5049071;28;20027;-75
2023/01/04 12:00:59;;;;;;;7.53;3.47;;;;;;;;;;5052842;28;20025;-73
2023/01/04 12:03:37;;;;;;;2.50;2.30;;;7.40;99.90;;;;;;5052532;28;20567;-74
2023/01/04 12:06:16;;;;;;;6.03;2.58;;;7.40;99.90;;;;;;5056480;28;20043;-75
2023/01/04 12:08:41;;;;;;;3.37;2.00;;;7.40;99.90;;;;;;5052392;28;20487;-75
2023/01/04 12:11:27;;;;;;;2.15;1.95;;;7.40;99.90;;;;;;5057311;28;20293;-76
2023/01/04 12:13:53;;;;;;;3.08;1.63;;;;;;;;;;5054942;28;20397;-73
2023/01/04 12:16:57;;;;;;;2.20;2.03;;;7.20;99.90;;;;;;5050915;28;20440;-74
2023/01/04 12:19:23;;;;;;;2.33;1.77;;;7.20;99.90;;;;;;4993068;28;20029;-74
2023/01/04 12:21:58;;;;;;;2.45;1.13;;;7.20;99.90;;;;;;5045295;28;20076;-73
2023/01/04 12:24:27;;;;;;;2.83;1.55;;;7.30;99.90;;;;;;5054873;28;20037;-74
2023/01/04 12:26:54;;;;;;;2.75;1.50;;;;;;;;;;5057113;28;20106;-74
2023/01/04 12:29:23;;;;;;;2.47;1.83;;;;;;;;;;5054868;28;20037;-74
2023/01/04 12:32:13;;;;;;;2.80;1.65;;;7.60;99.90;;;;;;5055378;28;21484;-74
2023/01/04 12:34:46;;;;;;;3.25;1.40;;;7.80;99.90;;;;;;5056473;28;20044;-74
2023/01/04 12:37:37;;;;;;;2.63;1.90;;;7.60;99.90;;;;;;5060037;28;20032;-75
2023/01/04 12:40:40;;;;;;;3.92;1.35;;;7.80;99.90;;;;;;5066811;28;20029;-74
2023/01/04 12:43:14;;;;;;;1.58;1.38;;;;;;;;;;5066278;28;20033;-76
2023/01/04 12:45:47;;;;;;;2.35;1.80;;;7.90;99.90;;;;;;5066244;28;20028;-76
2023/01/04 12:51:17;;;;;;;;;;;8.00;99.90;;;;;;5047146;28;20063;-76
2023/01/04 12:53:49;;;;;;;1.92;1.63;;;8.00;99.90;;;;;;5045263;28;19966;-77
2023/01/04 12:56:15;;;;;;;2.75;1.83;;;8.00;99.90;;;;;;5045472;28;20471;-76
2023/01/04 12:59:01;;;;;;;2.42;1.67;;;8.30;99.90;;;;;;5046854;28;20048;-75
2023/01/04 13:01:28;;;;;;;1.50;1.30;;;8.10;99.90;;;;;;5045809;28;20079;-75
2023/01/04 13:04:00;;;;;;;3.83;2.42;;;8.00;99.90;;;;;;5046201;28;20017;-74
2023/01/04 13:06:29;;;;;;;1.73;1.63;;;8.00;99.90;;;;;;5047109;28;20036;-75
2023/01/04 13:08:54;;;;;;;4.20;2.35;;;8.10;99.90;;;;;;5048690;28;20032;-75
2023/01/04 13:11:55;;;;;;;3.22;1.95;;;8.00;99.90;;;;;;5050459;28;20028;-75
2023/01/04 13:14:33;;;;;;;3.13;1.75;;;;;;;;;;5069827;28;20095;-75
2023/01/04 13:17:17;;;;;;;5.25;2.28;;;8.10;99.90;;;;;;5068399;28;20086;-73
2023/01/04 13:19:44;;;;;;;2.17;1.83;;;;;;;;;;5068064;28;20025;-74
2023/01/04 13:22:11;;;;;;;2.35;2.00;;;;;;;;;;5069967;28;20038;-74
2023/01/04 13:24:42;;;;;;;3.72;2.60;;;8.20;99.90;;;;;;5056686;28;20056;-74
2023/01/04 13:27:16;;;;;;;4.10;2.70;;;8.10;99.90;;;;;;5057663;28;20040;-74
2023/01/04 13:29:43;;;;;;;3.65;2.30;;;;;;;;;;5056391;28;20016;-74
2023/01/04 13:32:22;;;;;;;2.55;2.25;;;8.30;99.90;;;;;;5061346;28;20029;-75
2023/01/04 13:35:03;;;;;;;3.70;2.47;;;8.10;99.90;;;;;;5067877;28;20263;-74
2023/01/04 13:37:31;;;;;;;3.83;2.58;;;;;;;;;;5059795;28;20036;-74
2023/01/04 13:40:15;;;;;;;8.32;2.85;;;;;;;;;;5057475;28;20124;-72
2023/01/04 13:42:44;;;;;;;9.65;3.83;;;8.20;99.90;;;;;;5057923;28;20486;-74
2023/01/04 13:45:10;;;;;;;10.40;4.22;;;;;;;;;;5062666;28;20032;-74
2023/01/04 13:47:38;;;;;;;6.15;2.42;;;8.20;99.90;;;;;;5054162;28;20037;-73
2023/01/04 13:50:06;;;;;;;5.75;2.42;;;8.30;99.90;;;;;;5064549;28;20094;-73
2023/01/04 13:52:34;;;;;;;3.08;2.35;;;8.20;99.90;;;;;;5067942;28;20381;-74
2023/01/04 13:55:19;;;;;;;2.28;2.10;;;;;;;;;;5067683;28;20025;-73
2023/01/04 13:57:59;;;;;;;3.42;1.92;;;8.10;99.90;;;;;;5068144;28;20032;-73
2023/01/04 14:00:42;;;;;;;2.08;1.83;;;8.20;99.90;;;;;;5068533;28;20065;-73
2023/01/04 14:03:43;;;;;;;1.05;0.60;;;9.00;99.90;;;;;;5069795;28;20039;-73
2023/01/04 14:06:09;;;;;;;1.20;0.93;;;9.30;99.90;;;;;;5069452;28;20028;-73
2023/01/04 14:09:01;;;;;;;1.05;0.80;;;9.70;99.90;;;;;;5071536;28;20035;-73
2023/01/04 14:14:54;;;;;;;1.67;0.63;;;10.10;99.90;;;;;;5061870;28;20127;-72
2023/01/04 14:17:41;;;;;;;2.72;0.40;;;10.20;99.90;;;;;;5057206;28;20037;-73
2023/01/04 14:20:11;;;;;;;1.10;0.43;;;10.30;99.90;;;;;;5056015;28;20025;-73
2023/01/04 14:22:45;;;;;;;;;;;10.20;99.90;;;;;;5057985;28;20031;-72
2023/01/04 14:25:30;;;;;;;0.35;0.35;;;10.10;99.90;;;;;;5047999;28;19928;-73
2023/01/04 14:28:15;;;;;;;1.33;0.88;;;;;;;;;;5050919;28;20123;-73